createdAt,value
2023-03-29T00:00:34.022Z,4.21
2023-03-29T00:01:36.029Z,4.01
2023-03-29T00:02:34.057Z,4.07
2023-03-29T00:03:34.136Z,3.73
2023-03-29T00:04:34.183Z,3.97
2023-03-29T00:05:34.056Z,4.44
2023-03-29T00:06:34.054Z,4.52
2023-03-29T00:07:34.044Z,4.06
2023-03-29T00:08:34.095Z,4.32
2023-03-29T00:09:34.033Z,4.25
2023-03-29T00:10:34.104Z,4.03
2023-03-29T00:11:34.062Z,4.12
2023-03-29T00:12:34.055Z,4.39
2023-03-29T00:13:34.052Z,4.08
2023-03-29T00:14:34.038Z,3.72
2023-03-29T00:15:34.037Z,3.86
2023-03-29T00:16:34.083Z,3.54
2023-03-29T00:17:34.101Z,3.96
2023-03-29T00:18:34.022Z,4.01
2023-03-29T00:19:34.037Z,4.27
2023-03-29T00:20:34.030Z,3.60
2023-03-29T00:21:34.055Z,3.75
2023-03-29T00:22:34.066Z,3.52
2023-03-29T00:23:34.038Z,3.49
2023-03-29T00:24:34.050Z,3.34
2023-03-29T00:25:34.062Z,3.26
2023-03-29T00:26:34.071Z,3.41
2023-03-29T00:27:34.051Z,3.28
2023-03-29T00:28:34.034Z,3.16
2023-03-29T00:29:34.054Z,2.91
2023-03-29T00:30:34.026Z,3.29
2023-03-29T00:31:34.079Z,3.50
2023-03-29T00:32:34.149Z,3.28
2023-03-29T00:33:34.032Z,3.34
2023-03-29T00:34:34.032Z,3.32
2023-03-29T00:35:34.074Z,2.94
2023-03-29T00:36:34.022Z,3.41
2023-03-29T00:37:34.111Z,2.96
2023-03-29T00:38:34.013Z,2.88
2023-03-29T00:39:34.014Z,2.90
2023-03-29T00:40:34.018Z,3.19
2023-03-29T00:41:34.011Z,3.90
2023-03-29T00:42:33.993Z,3.94
2023-03-29T00:43:33.998Z,3.76
2023-03-29T00:44:34.009Z,3.45
2023-03-29T00:45:33.995Z,3.70
2023-03-29T00:46:34.044Z,3.78
2023-03-29T00:47:34.095Z,3.49
2023-03-29T00:48:33.997Z,3.60
2023-03-29T00:49:33.989Z,3.45
2023-03-29T00:50:34.137Z,3.42
2023-03-29T00:51:33.972Z,4.04
2023-03-29T00:52:33.970Z,3.73
2023-03-29T00:53:33.951Z,3.66
2023-03-29T00:54:33.951Z,3.48
2023-03-29T00:55:33.950Z,3.69
2023-03-29T00:56:33.968Z,3.48
2023-03-29T00:57:33.991Z,3.62
2023-03-29T00:58:33.941Z,3.60
2023-03-29T00:59:33.945Z,3.95
2023-03-29T01:00:33.948Z,3.98
2023-03-29T01:01:34.094Z,3.71
2023-03-29T01:02:33.965Z,3.93
2023-03-29T01:03:33.953Z,3.69
2023-03-29T01:04:33.964Z,3.79
2023-03-29T01:05:33.965Z,4.07
2023-03-29T01:06:34.008Z,4.76
2023-03-29T01:07:33.908Z,4.75
2023-03-29T01:08:33.904Z,4.69
2023-03-29T01:09:33.903Z,4.32
2023-03-29T01:10:33.911Z,4.27
2023-03-29T01:11:33.897Z,4.19
2023-03-29T01:12:33.890Z,3.71
2023-03-29T01:13:33.891Z,3.72
2023-03-29T01:14:33.899Z,3.95
2023-03-29T01:15:33.875Z,4.10
2023-03-29T01:16:33.915Z,3.54
2023-03-29T01:17:33.924Z,3.49
2023-03-29T01:18:33.869Z,3.21
2023-03-29T01:19:33.889Z,3.39
2023-03-29T01:20:33.876Z,3.43
2023-03-29T01:21:33.877Z,3.48
2023-03-29T01:22:33.891Z,3.63
2023-03-29T01:23:33.842Z,3.71
2023-03-29T01:24:33.835Z,4.04
2023-03-29T01:25:33.839Z,3.91
2023-03-29T01:26:33.849Z,3.49
2023-03-29T01:27:33.838Z,3.11
2023-03-29T01:28:33.858Z,3.33
2023-03-29T01:29:33.829Z,3.44
2023-03-29T01:30:33.816Z,3.23
2023-03-29T01:31:33.875Z,2.98
2023-03-29T01:32:33.853Z,3.07
2023-03-29T01:33:33.809Z,2.97
2023-03-29T01:34:33.808Z,3.03
2023-03-29T01:35:33.833Z,2.78
2023-03-29T01:36:33.814Z,2.74
2023-03-29T01:37:33.815Z,2.62
2023-03-29T01:38:33.801Z,2.68
2023-03-29T01:39:33.784Z,2.64
2023-03-29T01:40:33.788Z,2.75
2023-03-29T01:41:33.793Z,2.59
2023-03-29T01:42:33.780Z,2.72
2023-03-29T01:43:33.781Z,2.84
2023-03-29T01:44:33.775Z,2.60
2023-03-29T01:45:33.787Z,2.88
2023-03-29T01:46:33.879Z,2.69
2023-03-29T01:47:33.828Z,2.52
2023-03-29T01:48:33.780Z,2.78
2023-03-29T01:49:33.778Z,2.78
2023-03-29T01:50:33.777Z,2.74
2023-03-29T01:51:33.766Z,2.76
2023-03-29T01:52:33.783Z,2.78
2023-03-29T01:53:33.781Z,2.78
2023-03-29T01:54:33.788Z,2.83
2023-03-29T01:55:33.778Z,2.41
2023-03-29T01:56:33.772Z,2.52
2023-03-29T01:57:33.783Z,2.76
2023-03-29T01:58:33.811Z,2.65
2023-03-29T01:59:33.779Z,2.60
2023-03-29T02:00:33.784Z,2.63
2023-03-29T02:01:33.805Z,2.77
2023-03-29T02:02:33.838Z,3.07
2023-03-29T02:03:33.899Z,2.80
2023-03-29T02:04:33.745Z,2.73
2023-03-29T02:05:33.779Z,2.74
2023-03-29T02:06:33.764Z,2.74
2023-03-29T02:07:33.736Z,2.85
2023-03-29T02:08:33.748Z,2.61
2023-03-29T02:09:33.745Z,2.61
2023-03-29T02:10:33.742Z,2.60
2023-03-29T02:11:33.737Z,2.47
2023-03-29T02:12:33.748Z,2.79
2023-03-29T02:13:33.740Z,2.61
2023-03-29T02:14:33.744Z,2.38
2023-03-29T02:15:33.817Z,2.55
2023-03-29T02:16:33.723Z,2.80
2023-03-29T02:17:33.741Z,2.74
2023-03-29T02:18:33.709Z,2.53
2023-03-29T02:19:33.711Z,2.92
2023-03-29T02:20:33.712Z,2.74
2023-03-29T02:21:33.724Z,2.98
2023-03-29T02:22:33.725Z,2.83
2023-03-29T02:23:33.718Z,2.64
2023-03-29T02:24:33.717Z,2.89
2023-03-29T02:25:33.721Z,2.82
2023-03-29T02:26:33.715Z,2.96
2023-03-29T02:27:33.696Z,2.72
2023-03-29T02:28:33.738Z,3.00
2023-03-29T02:29:33.712Z,3.06
2023-03-29T02:30:33.703Z,2.81
2023-03-29T02:31:33.737Z,2.83
2023-03-29T02:32:33.719Z,3.02
2023-03-29T02:33:33.694Z,3.00
2023-03-29T02:34:33.694Z,2.98
2023-03-29T02:35:33.682Z,2.91
2023-03-29T02:36:33.678Z,2.90
2023-03-29T02:37:33.726Z,2.89
2023-03-29T02:38:33.669Z,2.99
2023-03-29T02:39:33.671Z,2.92
2023-03-29T02:40:33.677Z,2.86
2023-03-29T02:41:33.656Z,2.71
2023-03-29T02:42:33.660Z,2.92
2023-03-29T02:43:33.667Z,2.91
2023-03-29T02:44:33.641Z,2.74
2023-03-29T02:45:33.649Z,3.14
2023-03-29T02:46:33.653Z,3.34
2023-03-29T02:47:33.668Z,3.16
2023-03-29T02:48:33.652Z,3.41
2023-03-29T02:49:33.658Z,3.28
2023-03-29T02:50:33.676Z,3.39
2023-03-29T02:51:33.639Z,3.21
2023-03-29T02:52:33.659Z,3.16
2023-03-29T02:53:33.646Z,3.24
2023-03-29T02:54:33.638Z,3.23
2023-03-29T02:55:33.640Z,3.36
2023-03-29T02:56:33.624Z,3.52
2023-03-29T02:57:33.630Z,3.97
2023-03-29T02:58:33.643Z,4.38
2023-03-29T02:59:33.637Z,4.45
2023-03-29T03:00:33.640Z,4.32
2023-03-29T03:01:33.665Z,4.05
2023-03-29T03:02:33.673Z,4.01
2023-03-29T03:03:33.726Z,4.16
2023-03-29T03:04:33.591Z,4.23
2023-03-29T03:05:33.623Z,4.45
2023-03-29T03:06:33.624Z,4.29
2023-03-29T03:07:33.622Z,4.09
2023-03-29T03:08:33.606Z,4.57
2023-03-29T03:09:33.596Z,4.21
2023-03-29T03:10:33.590Z,4.24
2023-03-29T03:11:33.615Z,4.14
2023-03-29T03:12:33.591Z,3.98
2023-03-29T03:13:33.600Z,4.35
2023-03-29T03:14:33.586Z,4.23
2023-03-29T03:15:33.584Z,4.55
2023-03-29T03:16:33.652Z,4.42
2023-03-29T03:17:33.641Z,4.34
2023-03-29T03:18:33.586Z,4.70
2023-03-29T03:19:33.566Z,4.42
2023-03-29T03:20:33.623Z,4.27
2023-03-29T03:21:33.603Z,4.09
2023-03-29T03:22:33.560Z,4.18
2023-03-29T03:23:33.551Z,4.41
2023-03-29T03:24:33.546Z,4.16
2023-03-29T03:25:33.553Z,4.26
2023-03-29T03:26:33.581Z,4.40
2023-03-29T03:27:33.542Z,4.04
2023-03-29T03:28:33.562Z,4.27
2023-03-29T03:29:33.563Z,4.44
2023-03-29T03:30:33.543Z,4.46
2023-03-29T03:31:33.620Z,4.41
2023-03-29T03:32:33.581Z,4.47
2023-03-29T03:33:33.561Z,4.35
2023-03-29T03:34:33.537Z,4.17
2023-03-29T03:35:33.566Z,4.26
2023-03-29T03:36:33.522Z,4.59
2023-03-29T03:37:33.543Z,4.41
2023-03-29T03:38:33.536Z,4.30
2023-03-29T03:39:33.563Z,4.78
2023-03-29T03:40:33.563Z,4.27
2023-03-29T03:41:33.531Z,4.06
2023-03-29T03:42:33.534Z,3.90
2023-03-29T03:43:33.510Z,4.09
2023-03-29T03:44:33.505Z,4.06
2023-03-29T03:45:33.573Z,4.11
2023-03-29T03:46:33.505Z,3.78
2023-03-29T03:47:33.524Z,3.85
2023-03-29T03:48:33.497Z,4.25
2023-03-29T03:49:33.494Z,4.54
2023-03-29T03:50:33.480Z,4.53
2023-03-29T03:51:33.501Z,4.29
2023-03-29T03:52:33.496Z,4.12
2023-03-29T03:53:33.485Z,4.18
2023-03-29T03:54:33.473Z,4.18
2023-03-29T03:55:33.463Z,4.20
2023-03-29T03:56:33.490Z,4.07
2023-03-29T03:57:33.470Z,4.48
2023-03-29T03:58:33.468Z,4.14
2023-03-29T03:59:33.470Z,4.17
2023-03-29T04:00:33.484Z,4.08
2023-03-29T04:01:33.467Z,3.98
2023-03-29T04:02:33.628Z,3.84
2023-03-29T04:03:33.524Z,3.61
2023-03-29T04:04:33.509Z,3.48
2023-03-29T04:05:33.485Z,3.60
2023-03-29T04:06:33.474Z,3.54
2023-03-29T04:07:33.472Z,3.68
2023-03-29T04:08:33.468Z,3.99
2023-03-29T04:09:33.516Z,3.92
2023-03-29T04:10:33.458Z,3.72
2023-03-29T04:11:33.477Z,3.99
2023-03-29T04:12:33.457Z,3.93
2023-03-29T04:13:33.465Z,3.87
2023-03-29T04:14:33.455Z,4.14
2023-03-29T04:15:33.483Z,3.99
2023-03-29T04:16:33.458Z,4.21
2023-03-29T04:17:33.610Z,3.71
2023-03-29T04:18:33.580Z,4.01
2023-03-29T04:19:33.470Z,3.94
2023-03-29T04:20:33.468Z,4.23
2023-03-29T04:21:33.460Z,4.51
2023-03-29T04:22:33.446Z,4.75
2023-03-29T04:23:33.446Z,4.57
2023-03-29T04:24:33.454Z,4.28
2023-03-29T04:25:33.462Z,4.08
2023-03-29T04:26:33.435Z,4.11
2023-03-29T04:27:33.446Z,3.84
2023-03-29T04:28:33.453Z,3.95
2023-03-29T04:29:33.533Z,4.15
2023-03-29T04:30:33.423Z,4.21
2023-03-29T04:31:33.463Z,4.32
2023-03-29T04:32:33.490Z,4.03
2023-03-29T04:33:33.477Z,4.06
2023-03-29T04:34:33.450Z,3.89
2023-03-29T04:35:33.606Z,3.83
2023-03-29T04:36:33.440Z,3.67
2023-03-29T04:37:33.465Z,3.82
2023-03-29T04:38:33.476Z,3.50
2023-03-29T04:39:33.455Z,3.91
2023-03-29T04:40:33.470Z,3.86
2023-03-29T04:41:33.448Z,3.94
2023-03-29T04:42:33.436Z,4.05
2023-03-29T04:43:33.457Z,3.72
2023-03-29T04:44:33.511Z,3.57
2023-03-29T04:45:33.454Z,4.01
2023-03-29T04:46:33.536Z,3.84
2023-03-29T04:47:33.486Z,3.91
2023-03-29T04:48:33.456Z,4.30
2023-03-29T04:49:33.473Z,4.19
2023-03-29T04:50:33.466Z,4.23
2023-03-29T04:51:33.503Z,3.93
2023-03-29T04:52:33.544Z,3.85
2023-03-29T04:53:33.528Z,4.07
2023-03-29T04:54:33.547Z,4.09
2023-03-29T04:55:33.530Z,4.71
2023-03-29T04:56:33.541Z,5.29
2023-03-29T04:57:33.579Z,5.09
2023-03-29T04:58:33.578Z,4.75
2023-03-29T04:59:33.585Z,4.83
2023-03-29T05:00:33.614Z,4.40
2023-03-29T05:01:33.632Z,4.44
2023-03-29T05:02:33.660Z,4.56
2023-03-29T05:03:33.646Z,4.38
2023-03-29T05:04:33.656Z,4.40
2023-03-29T05:05:33.656Z,4.22
2023-03-29T05:06:33.666Z,4.29
2023-03-29T05:07:33.639Z,4.56
2023-03-29T05:08:33.675Z,4.64
2023-03-29T05:09:35.523Z,4.61
2023-03-29T05:10:33.672Z,4.68
2023-03-29T05:11:33.703Z,4.56
2023-03-29T05:12:33.697Z,4.49
2023-03-29T05:13:33.705Z,4.61
2023-03-29T05:14:33.719Z,4.40
2023-03-29T05:15:33.704Z,4.39
2023-03-29T05:16:33.764Z,4.60
2023-03-29T05:17:33.746Z,5.12
2023-03-29T05:18:33.743Z,5.25
2023-03-29T05:19:33.714Z,5.32
2023-03-29T05:20:33.741Z,5.32
2023-03-29T05:21:33.731Z,5.15
2023-03-29T05:22:33.739Z,5.01
2023-03-29T05:23:33.743Z,5.03
2023-03-29T05:24:33.726Z,5.12
2023-03-29T05:25:33.992Z,5.16
2023-03-29T05:26:33.734Z,5.46
2023-03-29T05:27:33.744Z,5.57
2023-03-29T05:28:33.818Z,5.81
2023-03-29T05:29:33.759Z,5.06
2023-03-29T05:30:33.794Z,4.98
2023-03-29T05:31:33.793Z,5.93
2023-03-29T05:32:33.810Z,5.79
2023-03-29T05:33:33.834Z,6.44
2023-03-29T05:34:33.808Z,5.61
2023-03-29T05:35:33.898Z,6.85
2023-03-29T05:36:33.846Z,7.64
2023-03-29T05:37:33.855Z,8.31
2023-03-29T05:38:33.946Z,9.18
2023-03-29T05:39:36.406Z,9.52
2023-03-29T05:40:33.926Z,11.07
2023-03-29T05:41:33.931Z,10.47
2023-03-29T05:42:33.930Z,10.86
2023-03-29T05:43:33.907Z,11.60
2023-03-29T05:44:33.903Z,12.26
2023-03-29T05:45:33.951Z,12.59
2023-03-29T05:46:33.901Z,13.35
2023-03-29T05:47:33.885Z,13.55
2023-03-29T05:48:33.862Z,14.37
2023-03-29T05:49:33.849Z,14.29
2023-03-29T05:50:33.872Z,14.62
2023-03-29T05:51:33.859Z,14.01
2023-03-29T05:52:33.832Z,13.87
2023-03-29T05:53:33.838Z,10.70
2023-03-29T05:54:33.820Z,9.09
2023-03-29T05:55:33.846Z,8.23
2023-03-29T05:56:33.827Z,7.34
2023-03-29T05:57:33.811Z,6.24
2023-03-29T05:58:33.800Z,5.96
2023-03-29T05:59:33.821Z,5.44
2023-03-29T06:00:33.813Z,5.12
2023-03-29T06:01:33.786Z,5.96
2023-03-29T06:02:33.886Z,7.63
2023-03-29T06:03:33.975Z,9.97
2023-03-29T06:04:34.007Z,11.30
2023-03-29T06:05:33.792Z,11.74
2023-03-29T06:06:33.745Z,9.84
2023-03-29T06:07:33.745Z,10.19
2023-03-29T06:08:33.797Z,11.17
2023-03-29T06:09:33.717Z,12.40
2023-03-29T06:10:33.787Z,13.16
2023-03-29T06:11:33.726Z,13.58
2023-03-29T06:12:33.715Z,14.16
2023-03-29T06:13:33.694Z,14.75
2023-03-29T06:14:33.697Z,15.08
2023-03-29T06:15:33.702Z,15.06
2023-03-29T06:16:33.756Z,21.80
2023-03-29T06:17:33.798Z,19.76
2023-03-29T06:18:33.693Z,18.52
2023-03-29T06:19:33.676Z,17.25
2023-03-29T06:20:33.676Z,16.58
2023-03-29T06:21:33.732Z,16.92
2023-03-29T06:22:33.771Z,16.96
2023-03-29T06:23:33.795Z,16.74
2023-03-29T06:24:33.857Z,16.81
2023-03-29T06:25:33.891Z,16.99
2023-03-29T06:26:33.952Z,16.74
2023-03-29T06:27:33.969Z,17.20
2023-03-29T06:28:34.006Z,17.33
2023-03-29T06:29:34.026Z,17.58
2023-03-29T06:30:34.073Z,17.35
2023-03-29T06:31:34.629Z,15.42
2023-03-29T06:32:34.142Z,15.85
2023-03-29T06:33:34.232Z,14.59
2023-03-29T06:34:35.518Z,15.97
2023-03-29T06:35:34.303Z,17.11
2023-03-29T06:36:34.314Z,18.84
2023-03-29T06:37:34.337Z,20.51
2023-03-29T06:38:34.359Z,20.05
2023-03-29T06:39:34.390Z,19.60
2023-03-29T06:40:34.397Z,98.39
2023-03-29T06:41:34.409Z,143.85
2023-03-29T06:42:34.452Z,73.36
2023-03-29T06:43:34.464Z,64.98
2023-03-29T06:44:34.486Z,57.87
2023-03-29T06:45:34.512Z,41.03
2023-03-29T06:46:35.351Z,32.48
2023-03-29T06:47:35.051Z,30.54
2023-03-29T06:48:34.605Z,62.73
2023-03-29T06:49:34.630Z,56.14
2023-03-29T06:50:34.642Z,45.87
2023-03-29T06:51:35.431Z,38.86
2023-03-29T06:52:35.023Z,38.27
2023-03-29T06:53:34.662Z,39.61
2023-03-29T06:54:34.660Z,35.41
2023-03-29T06:55:34.681Z,31.47
2023-03-29T06:56:34.680Z,30.46
2023-03-29T06:57:34.704Z,31.20
2023-03-29T06:58:34.721Z,31.92
2023-03-29T06:59:35.021Z,31.94
2023-03-29T07:00:34.726Z,31.61
2023-03-29T07:01:34.920Z,30.77
2023-03-29T07:02:35.175Z,30.54
2023-03-29T07:03:34.787Z,30.01
2023-03-29T07:04:34.818Z,29.37
2023-03-29T07:05:34.781Z,28.21
2023-03-29T07:06:34.808Z,27.07
2023-03-29T07:07:35.036Z,23.84
2023-03-29T07:08:34.842Z,25.89
2023-03-29T07:09:34.840Z,26.05
2023-03-29T07:10:34.861Z,25.54
2023-03-29T07:11:34.893Z,24.57
2023-03-29T07:12:34.883Z,23.63
2023-03-29T07:13:34.965Z,23.37
2023-03-29T07:14:34.928Z,22.78
2023-03-29T07:15:34.933Z,22.07
2023-03-29T07:16:35.004Z,21.67
2023-03-29T07:17:35.102Z,21.15
2023-03-29T07:18:34.972Z,20.90
2023-03-29T07:19:34.995Z,21.03
2023-03-29T07:20:34.991Z,20.56
2023-03-29T07:21:36.692Z,20.28
2023-03-29T07:22:34.977Z,20.50
2023-03-29T07:23:34.967Z,19.87
2023-03-29T07:24:34.982Z,19.90
2023-03-29T07:25:34.964Z,18.82
2023-03-29T07:26:34.947Z,20.03
2023-03-29T07:27:35.049Z,19.01
2023-03-29T07:28:35.039Z,19.08
2023-03-29T07:29:34.926Z,18.68
2023-03-29T07:30:34.930Z,18.50
2023-03-29T07:31:34.913Z,18.02
2023-03-29T07:32:35.009Z,21.74
2023-03-29T07:33:35.157Z,23.30
2023-03-29T07:34:34.909Z,22.04
2023-03-29T07:35:35.102Z,22.88
2023-03-29T07:36:34.883Z,22.70
2023-03-29T07:37:35.055Z,21.93
2023-03-29T07:38:34.869Z,20.65
2023-03-29T07:39:34.888Z,20.69
2023-03-29T07:40:34.863Z,19.90
2023-03-29T07:41:34.863Z,19.46
2023-03-29T07:42:34.846Z,19.38
2023-03-29T07:43:34.831Z,18.79
2023-03-29T07:44:34.820Z,18.92
2023-03-29T07:45:34.835Z,18.84
2023-03-29T07:46:34.837Z,18.44
2023-03-29T07:47:34.901Z,18.63
2023-03-29T07:48:34.791Z,18.52
2023-03-29T07:49:35.047Z,18.01
2023-03-29T07:50:34.813Z,18.13
2023-03-29T07:51:34.773Z,18.68
2023-03-29T07:52:34.766Z,18.62
2023-03-29T07:53:34.753Z,18.64
2023-03-29T07:54:34.795Z,18.25
2023-03-29T07:55:34.769Z,18.77
2023-03-29T07:56:34.751Z,18.54
2023-03-29T07:57:34.755Z,19.65
2023-03-29T07:58:34.763Z,19.58
2023-03-29T07:59:35.049Z,20.96
2023-03-29T08:00:34.812Z,20.91
2023-03-29T08:01:34.724Z,20.41
2023-03-29T08:02:34.706Z,20.99
2023-03-29T08:03:34.761Z,20.69
2023-03-29T08:04:34.781Z,19.73
2023-03-29T08:05:41.296Z,17.26
2023-03-29T08:06:35.660Z,16.75
2023-03-29T08:07:34.668Z,16.21
2023-03-29T08:08:34.674Z,15.52
2023-03-29T08:09:34.646Z,16.52
2023-03-29T08:10:34.661Z,15.55
2023-03-29T08:11:34.649Z,15.08
2023-03-29T08:12:34.652Z,14.23
2023-03-29T08:13:34.624Z,11.76
2023-03-29T08:14:34.614Z,11.26
2023-03-29T08:15:35.072Z,10.83
2023-03-29T08:16:34.665Z,10.78
2023-03-29T08:17:34.649Z,11.69
2023-03-29T08:18:35.097Z,12.58
2023-03-29T08:19:34.594Z,10.32
2023-03-29T08:20:35.052Z,8.96
2023-03-29T08:21:34.572Z,10.68
2023-03-29T08:22:34.584Z,11.72
2023-03-29T08:23:34.566Z,12.73
2023-03-29T08:24:34.590Z,14.04
2023-03-29T08:25:34.552Z,12.71
2023-03-29T08:26:34.544Z,13.03
2023-03-29T08:27:34.566Z,14.12
2023-03-29T08:28:34.589Z,14.43
2023-03-29T08:29:34.649Z,14.86
2023-03-29T08:30:34.623Z,14.97
2023-03-29T08:31:34.819Z,15.18
2023-03-29T08:32:34.662Z,13.91
2023-03-29T08:33:34.655Z,14.22
2023-03-29T08:34:34.661Z,14.60
2023-03-29T08:35:34.791Z,14.88
2023-03-29T08:36:34.688Z,13.55
2023-03-29T08:37:34.672Z,12.08
2023-03-29T08:38:34.709Z,12.15
2023-03-29T08:39:34.705Z,12.87
2023-03-29T08:40:34.751Z,14.13
2023-03-29T08:41:34.718Z,14.09
2023-03-29T08:42:34.734Z,13.53
2023-03-29T08:43:35.061Z,13.02
2023-03-29T08:44:34.697Z,12.99
2023-03-29T08:45:34.717Z,12.84
2023-03-29T08:46:35.661Z,13.29
2023-03-29T08:47:34.723Z,13.17
2023-03-29T08:48:34.715Z,13.18
2023-03-29T08:49:34.731Z,13.17
2023-03-29T08:50:34.729Z,13.17
2023-03-29T08:51:34.736Z,12.97
2023-03-29T08:52:34.752Z,13.13
2023-03-29T08:53:34.811Z,13.29
2023-03-29T08:54:34.796Z,13.29
2023-03-29T08:55:34.748Z,13.24
2023-03-29T08:56:34.775Z,13.00
2023-03-29T08:57:34.785Z,13.39
2023-03-29T08:58:34.865Z,15.74
2023-03-29T08:59:34.892Z,14.37
2023-03-29T09:00:34.841Z,13.67
2023-03-29T09:01:35.018Z,13.63
2023-03-29T09:02:35.056Z,13.13
2023-03-29T09:03:35.030Z,13.23
2023-03-29T09:04:35.023Z,12.98
2023-03-29T09:05:35.064Z,12.97
2023-03-29T09:06:35.139Z,12.78
2023-03-29T09:07:35.153Z,12.42
2023-03-29T09:08:35.165Z,12.16
2023-03-29T09:09:35.262Z,12.11
2023-03-29T09:10:35.257Z,12.13
2023-03-29T09:11:35.328Z,12.33
2023-03-29T09:12:36.605Z,12.21
2023-03-29T09:13:35.483Z,11.88
2023-03-29T09:14:35.528Z,12.24
2023-03-29T09:15:35.562Z,12.19
2023-03-29T09:16:35.643Z,13.61
2023-03-29T09:17:36.113Z,16.68
2023-03-29T09:18:35.747Z,14.02
2023-03-29T09:19:35.798Z,12.71
2023-03-29T09:20:35.848Z,11.49
2023-03-29T09:21:35.924Z,11.76
2023-03-29T09:22:35.966Z,11.51
2023-03-29T09:23:36.017Z,11.79
2023-03-29T09:24:36.079Z,11.95
2023-03-29T09:25:41.075Z,12.06
2023-03-29T09:26:37.154Z,10.12
2023-03-29T09:27:36.636Z,9.05
2023-03-29T09:28:36.105Z,9.18
2023-03-29T09:29:36.131Z,7.07
2023-03-29T09:30:36.091Z,9.58
2023-03-29T09:31:36.146Z,9.80
2023-03-29T09:32:36.190Z,5.41
2023-03-29T09:33:36.081Z,3.50
2023-03-29T09:34:36.066Z,4.65
2023-03-29T09:35:36.142Z,4.75
2023-03-29T09:36:36.043Z,5.07
2023-03-29T09:37:36.062Z,5.52
2023-03-29T09:38:36.039Z,5.48
2023-03-29T09:39:36.024Z,5.78
2023-03-29T09:40:36.035Z,6.62
2023-03-29T09:41:36.020Z,7.74
2023-03-29T09:42:36.004Z,8.09
2023-03-29T09:43:35.999Z,8.17
2023-03-29T09:44:36.076Z,7.68
2023-03-29T09:45:35.996Z,7.57
2023-03-29T09:46:35.997Z,8.56
2023-03-29T09:47:36.055Z,9.05
2023-03-29T09:48:36.108Z,8.01
2023-03-29T09:49:36.129Z,8.48
2023-03-29T09:50:36.180Z,8.97
2023-03-29T09:51:36.230Z,9.07
2023-03-29T09:52:36.289Z,9.14
2023-03-29T09:53:36.343Z,8.40
2023-03-29T09:54:36.400Z,9.02
2023-03-29T09:55:36.451Z,8.99
2023-03-29T09:56:36.518Z,8.73
2023-03-29T09:57:36.591Z,8.61
2023-03-29T09:58:36.629Z,9.05
2023-03-29T09:59:36.679Z,8.74
2023-03-29T10:00:36.800Z,8.67
2023-03-29T10:01:36.791Z,8.65
2023-03-29T10:02:36.845Z,8.59
2023-03-29T10:03:37.137Z,8.37
2023-03-29T10:04:37.181Z,8.56
2023-03-29T10:05:36.971Z,8.73
2023-03-29T10:06:37.010Z,8.83
2023-03-29T10:07:37.055Z,8.59
2023-03-29T10:08:37.105Z,8.28
2023-03-29T10:09:37.609Z,8.68
2023-03-29T10:10:37.186Z,6.90
2023-03-29T10:11:37.245Z,8.08
2023-03-29T10:12:37.251Z,7.56
2023-03-29T10:13:37.309Z,7.34
2023-03-29T10:14:37.362Z,6.04
2023-03-29T10:15:37.412Z,7.69
2023-03-29T10:16:37.478Z,6.27
2023-03-29T10:17:37.553Z,6.47
2023-03-29T10:18:37.553Z,5.30
2023-03-29T10:19:38.123Z,6.23
2023-03-29T10:20:37.684Z,5.45
2023-03-29T10:21:37.731Z,8.07
2023-03-29T10:22:37.880Z,8.13
2023-03-29T10:23:37.820Z,8.66
2023-03-29T10:24:38.129Z,8.02
2023-03-29T10:25:39.215Z,8.31
2023-03-29T10:26:37.869Z,7.96
2023-03-29T10:27:37.852Z,7.00
2023-03-29T10:28:37.791Z,7.01
2023-03-29T10:29:37.825Z,7.94
2023-03-29T10:30:37.773Z,8.86
2023-03-29T10:31:37.805Z,8.53
2023-03-29T10:32:37.949Z,8.44
2023-03-29T10:33:37.788Z,8.46
2023-03-29T10:34:37.744Z,8.51
2023-03-29T10:35:37.820Z,8.18
2023-03-29T10:36:37.730Z,8.23
2023-03-29T10:37:37.745Z,8.42
2023-03-29T10:38:37.744Z,8.39
2023-03-29T10:39:37.744Z,7.99
2023-03-29T10:40:37.713Z,8.09
2023-03-29T10:41:37.701Z,8.18
2023-03-29T10:42:37.682Z,7.96
2023-03-29T10:43:37.705Z,7.49
2023-03-29T10:44:37.687Z,7.38
2023-03-29T10:45:37.665Z,7.15
2023-03-29T10:46:37.735Z,7.28
2023-03-29T10:47:37.664Z,7.50
2023-03-29T10:48:37.642Z,7.16
2023-03-29T10:49:37.657Z,7.51
2023-03-29T10:50:37.617Z,7.46
2023-03-29T10:51:37.617Z,6.98
2023-03-29T10:52:37.617Z,5.92
2023-03-29T10:53:37.638Z,4.39
2023-03-29T10:54:37.610Z,5.56
2023-03-29T10:55:37.628Z,3.76
2023-03-29T10:56:37.620Z,5.18
2023-03-29T10:57:37.843Z,4.79
2023-03-29T10:58:37.593Z,3.64
2023-03-29T10:59:37.680Z,4.84
2023-03-29T11:00:37.642Z,4.22
2023-03-29T11:01:37.813Z,5.50
2023-03-29T11:02:37.836Z,5.41
2023-03-29T11:03:37.994Z,6.43
2023-03-29T11:04:37.855Z,6.20
2023-03-29T11:05:37.921Z,5.92
2023-03-29T11:06:38.018Z,6.15
2023-03-29T11:07:38.071Z,6.12
2023-03-29T11:08:38.082Z,6.02
2023-03-29T11:09:38.165Z,6.13
2023-03-29T11:10:38.224Z,5.92
2023-03-29T11:11:38.295Z,5.77
2023-03-29T11:12:38.326Z,5.84
2023-03-29T11:13:38.372Z,5.86
2023-03-29T11:14:38.431Z,5.83
2023-03-29T11:15:38.747Z,5.76
2023-03-29T11:16:38.517Z,5.85
2023-03-29T11:17:38.632Z,5.71
2023-03-29T11:18:38.624Z,6.12
2023-03-29T11:19:38.648Z,6.01
2023-03-29T11:20:38.722Z,5.95
2023-03-29T11:21:38.770Z,5.81
2023-03-29T11:22:38.816Z,5.61
2023-03-29T11:23:38.864Z,5.65
2023-03-29T11:24:38.917Z,5.46
2023-03-29T11:25:38.940Z,5.36
2023-03-29T11:26:38.990Z,5.44
2023-03-29T11:27:39.019Z,5.37
2023-03-29T11:28:39.075Z,5.25
2023-03-29T11:29:39.119Z,5.28
2023-03-29T11:30:39.168Z,5.11
2023-03-29T11:31:39.320Z,5.18
2023-03-29T11:32:39.244Z,5.13
2023-03-29T11:33:39.292Z,5.07
2023-03-29T11:34:39.327Z,5.01
2023-03-29T11:35:39.428Z,4.73
2023-03-29T11:36:39.438Z,4.80
2023-03-29T11:37:39.474Z,4.62
2023-03-29T11:38:39.504Z,4.65
2023-03-29T11:39:39.547Z,4.46
2023-03-29T11:40:39.586Z,4.45
2023-03-29T11:41:39.648Z,4.50
2023-03-29T11:42:39.657Z,4.28
2023-03-29T11:43:39.720Z,4.18
2023-03-29T11:44:39.725Z,4.23
2023-03-29T11:45:39.798Z,4.08
2023-03-29T11:46:39.853Z,3.84
2023-03-29T11:47:39.952Z,3.70
2023-03-29T11:48:39.883Z,3.74
2023-03-29T11:49:39.937Z,3.90
2023-03-29T11:50:39.937Z,3.94
2023-03-29T11:51:40.011Z,3.93
2023-03-29T11:52:40.098Z,3.68
2023-03-29T11:53:40.046Z,3.78
2023-03-29T11:54:40.631Z,3.67
2023-03-29T11:55:40.136Z,3.70
2023-03-29T11:56:40.225Z,3.68
2023-03-29T11:57:40.671Z,3.47
2023-03-29T11:58:40.215Z,3.64
2023-03-29T11:59:40.258Z,3.70
2023-03-29T12:00:40.287Z,3.51
2023-03-29T12:01:40.341Z,3.52
2023-03-29T12:02:40.882Z,3.52
2023-03-29T12:03:40.546Z,3.50
2023-03-29T12:04:40.428Z,3.46
2023-03-29T12:05:40.469Z,3.44
2023-03-29T12:06:40.488Z,3.29
2023-03-29T12:07:40.576Z,3.36
2023-03-29T12:08:40.583Z,3.40
2023-03-29T12:09:40.656Z,3.31
2023-03-29T12:10:40.670Z,3.28
2023-03-29T12:11:40.705Z,3.33
2023-03-29T12:12:41.172Z,3.14
2023-03-29T12:13:40.754Z,3.15
2023-03-29T12:14:40.813Z,3.20
2023-03-29T12:15:40.858Z,3.32
2023-03-29T12:16:41.011Z,2.96
2023-03-29T12:17:40.971Z,2.92
2023-03-29T12:18:41.008Z,3.03
2023-03-29T12:19:43.554Z,3.01
2023-03-29T12:20:40.999Z,2.94
2023-03-29T12:21:41.032Z,2.99
2023-03-29T12:22:40.997Z,3.08
2023-03-29T12:23:41.008Z,3.12
2023-03-29T12:24:40.971Z,2.95
2023-03-29T12:25:40.947Z,2.91
2023-03-29T12:26:40.990Z,3.05
2023-03-29T12:27:40.945Z,2.92
2023-03-29T12:28:40.980Z,2.95
2023-03-29T12:29:40.954Z,2.87
2023-03-29T12:30:40.945Z,3.05
2023-03-29T12:31:40.996Z,2.97
2023-03-29T12:32:40.998Z,3.02
2023-03-29T12:33:40.908Z,2.96
2023-03-29T12:34:40.885Z,2.89
2023-03-29T12:35:40.907Z,2.84
2023-03-29T12:36:40.888Z,2.85
2023-03-29T12:37:40.878Z,2.80
2023-03-29T12:38:40.850Z,2.93
2023-03-29T12:39:40.861Z,2.88
2023-03-29T12:40:40.836Z,2.80
2023-03-29T12:41:40.836Z,3.01
2023-03-29T12:42:40.814Z,2.90
2023-03-29T12:43:40.831Z,2.83
2023-03-29T12:44:40.808Z,2.90
2023-03-29T12:45:40.863Z,2.83
2023-03-29T12:46:41.269Z,2.90
2023-03-29T12:47:40.885Z,2.79
2023-03-29T12:48:40.780Z,2.86
2023-03-29T12:49:40.774Z,2.84
2023-03-29T12:50:40.753Z,2.77
2023-03-29T12:51:40.762Z,2.73
2023-03-29T12:52:40.744Z,2.84
2023-03-29T12:53:40.735Z,2.80
2023-03-29T12:54:40.786Z,2.75
2023-03-29T12:55:40.731Z,2.85
2023-03-29T12:56:40.919Z,2.76
2023-03-29T12:57:40.711Z,2.69
2023-03-29T12:58:40.703Z,2.64
2023-03-29T12:59:40.709Z,2.54
2023-03-29T13:00:40.709Z,2.79
2023-03-29T13:01:40.754Z,2.76
2023-03-29T13:02:40.949Z,2.74
2023-03-29T13:03:40.692Z,2.64
2023-03-29T13:04:40.682Z,2.51
2023-03-29T13:05:40.697Z,2.54
2023-03-29T13:06:40.655Z,2.59
2023-03-29T13:07:40.644Z,2.71
2023-03-29T13:08:40.645Z,2.61
2023-03-29T13:09:40.749Z,2.49
2023-03-29T13:10:40.683Z,2.65
2023-03-29T13:11:40.774Z,2.60